Terminal Aerodrome Forecast
Issued by NWS Charleston, WV

Current Version | Previous Version | Text Only | Print | Product List | Glossary Off
Versions: 1 2 3 4 5 6 7 8 9 10 11 12 13 14 15 16 17 18 19 20 21 22 23 24 25 26 27 28

000
FTUS41 KRLX 290500
TAFCRW
TAF
KCRW 290524Z 2906/3006 28005KT 4SM -SHRA BR SCT010 OVC025
      TEMPO 2907/2910 2SM -SHRA BKN020
     FM291200 VRB03KT P6SM BKN025
     FM291400 26008KT P6SM SCT040 BKN120
     FM300200 30004KT P6SM BKN040=

USA.gov is the U.S. government's official web portal to all federal, state and local government web resources and services.